sensor_id;sensor_type;location;lat;lon;timestamp;P1;durP1;ratioP1;P2;durP2;ratioP2
32876;SDS011;19226;51.600;8.034;2023-04-07T00:02:25;8.98;;;6.72;;
32876;SDS011;19226;51.600;8.034;2023-04-07T00:05:09;7.28;;;6.30;;
32876;SDS011;19226;51.600;8.034;2023-04-07T00:07:54;7.15;;;6.25;;
32876;SDS011;19226;51.600;8.034;2023-04-07T00:10:39;6.78;;;6.07;;
32876;SDS011;19226;51.600;8.034;2023-04-07T00:13:23;8.80;;;5.65;;
32876;SDS011;19226;51.600;8.034;2023-04-07T00:16:08;8.35;;;5.97;;
32876;SDS011;19226;51.600;8.034;2023-04-07T00:18:52;6.80;;;6.10;;
32876;SDS011;19226;51.600;8.034;2023-04-07T00:21:37;6.55;;;5.75;;
32876;SDS011;19226;51.600;8.034;2023-04-07T00:24:21;9.07;;;5.60;;
32876;SDS011;19226;51.600;8.034;2023-04-07T00:27:06;7.20;;;5.60;;
32876;SDS011;19226;51.600;8.034;2023-04-07T00:29:51;6.78;;;5.97;;
32876;SDS011;19226;51.600;8.034;2023-04-07T00:32:38;7.28;;;6.35;;
32876;SDS011;19226;51.600;8.034;2023-04-07T00:35:22;6.70;;;5.68;;
32876;SDS011;19226;51.600;8.034;2023-04-07T00:38:06;7.20;;;5.82;;
32876;SDS011;19226;51.600;8.034;2023-04-07T00:40:57;9.57;;;5.75;;
32876;SDS011;19226;51.600;8.034;2023-04-07T00:43:42;6.93;;;5.43;;
32876;SDS011;19226;51.600;8.034;2023-04-07T00:46:27;7.03;;;5.72;;
32876;SDS011;19226;51.600;8.034;2023-04-07T00:49:12;6.53;;;5.35;;
32876;SDS011;19226;51.600;8.034;2023-04-07T00:51:57;7.47;;;5.22;;
32876;SDS011;19226;51.600;8.034;2023-04-07T00:54:43;7.03;;;5.55;;
32876;SDS011;19226;51.600;8.034;2023-04-07T00:57:29;7.68;;;5.68;;
32876;SDS011;19226;51.600;8.034;2023-04-07T01:00:14;5.20;;;4.70;;
32876;SDS011;19226;51.600;8.034;2023-04-07T01:03:04;5.05;;;4.55;;
32876;SDS011;19226;51.600;8.034;2023-04-07T01:06:01;5.25;;;4.80;;
32876;SDS011;19226;51.600;8.034;2023-04-07T01:14:53;5.00;;;4.57;;
32876;SDS011;19226;51.600;8.034;2023-04-07T01:17:58;4.13;;;3.72;;
32876;SDS011;19226;51.600;8.034;2023-04-07T01:20:50;4.87;;;4.40;;
32876;SDS011;19226;51.600;8.034;2023-04-07T01:23:54;8.23;;;4.45;;
32876;SDS011;19226;51.600;8.034;2023-04-07T01:26:54;5.03;;;4.63;;
32876;SDS011;19226;51.600;8.034;2023-04-07T01:29:44;4.22;;;3.83;;
32876;SDS011;19226;51.600;8.034;2023-04-07T01:32:31;3.95;;;3.65;;
32876;SDS011;19226;51.600;8.034;2023-04-07T01:35:19;3.95;;;3.65;;
32876;SDS011;19226;51.600;8.034;2023-04-07T01:38:06;3.80;;;3.42;;
32876;SDS011;19226;51.600;8.034;2023-04-07T01:40:52;4.53;;;4.13;;
32876;SDS011;19226;51.600;8.034;2023-04-07T01:43:39;4.68;;;3.97;;
32876;SDS011;19226;51.600;8.034;2023-04-07T01:46:24;4.22;;;3.83;;
32876;SDS011;19226;51.600;8.034;2023-04-07T01:49:10;4.45;;;4.05;;
32876;SDS011;19226;51.600;8.034;2023-04-07T01:51:56;4.90;;;3.42;;
32876;SDS011;19226;51.600;8.034;2023-04-07T01:54:41;3.78;;;3.47;;
32876;SDS011;19226;51.600;8.034;2023-04-07T01:57:26;4.10;;;3.70;;
32876;SDS011;19226;51.600;8.034;2023-04-07T02:00:18;4.18;;;3.72;;
32876;SDS011;19226;51.600;8.034;2023-04-07T02:05:56;3.67;;;3.05;;
32876;SDS011;19226;51.600;8.034;2023-04-07T02:08:46;3.53;;;3.10;;
32876;SDS011;19226;51.600;8.034;2023-04-07T02:11:35;3.60;;;3.30;;
32876;SDS011;19226;51.600;8.034;2023-04-07T02:14:22;4.75;;;3.35;;
32876;SDS011;19226;51.600;8.034;2023-04-07T02:17:16;3.50;;;3.20;;
32876;SDS011;19226;51.600;8.034;2023-04-07T02:20:01;3.00;;;2.80;;
32876;SDS011;19226;51.600;8.034;2023-04-07T02:22:47;5.90;;;2.88;;
32876;SDS011;19226;51.600;8.034;2023-04-07T02:25:32;3.30;;;3.00;;
32876;SDS011;19226;51.600;8.034;2023-04-07T02:28:17;3.42;;;3.08;;
32876;SDS011;19226;51.600;8.034;2023-04-07T02:31:02;4.25;;;3.30;;
32876;SDS011;19226;51.600;8.034;2023-04-07T02:33:49;3.30;;;2.92;;
32876;SDS011;19226;51.600;8.034;2023-04-07T02:36:34;2.95;;;2.65;;
32876;SDS011;19226;51.600;8.034;2023-04-07T02:39:18;2.80;;;2.60;;
32876;SDS011;19226;51.600;8.034;2023-04-07T02:42:02;4.63;;;3.00;;
32876;SDS011;19226;51.600;8.034;2023-04-07T02:44:47;2.70;;;2.50;;
32876;SDS011;19226;51.600;8.034;2023-04-07T02:47:32;3.38;;;3.10;;
32876;SDS011;19226;51.600;8.034;2023-04-07T02:50:17;2.67;;;2.47;;
32876;SDS011;19226;51.600;8.034;2023-04-07T02:53:01;2.70;;;2.45;;
32876;SDS011;19226;51.600;8.034;2023-04-07T02:55:46;4.90;;;3.15;;
32876;SDS011;19226;51.600;8.034;2023-04-07T02:58:30;3.85;;;3.20;;
32876;SDS011;19226;51.600;8.034;2023-04-07T03:01:15;3.17;;;2.88;;
32876;SDS011;19226;51.600;8.034;2023-04-07T03:03:59;3.20;;;2.75;;
32876;SDS011;19226;51.600;8.034;2023-04-07T03:06:44;2.78;;;2.58;;
32876;SDS011;19226;51.600;8.034;2023-04-07T03:09:31;3.45;;;2.97;;
32876;SDS011;19226;51.600;8.034;2023-04-07T03:12:16;3.03;;;2.67;;
32876;SDS011;19226;51.600;8.034;2023-04-07T03:15:00;3.20;;;2.72;;
32876;SDS011;19226;51.600;8.034;2023-04-07T03:17:46;5.13;;;3.13;;
32876;SDS011;19226;51.600;8.034;2023-04-07T03:20:30;7.15;;;2.78;;
32876;SDS011;19226;51.600;8.034;2023-04-07T03:23:20;3.00;;;2.78;;
32876;SDS011;19226;51.600;8.034;2023-04-07T03:26:06;2.95;;;2.63;;
32876;SDS011;19226;51.600;8.034;2023-04-07T03:28:53;3.45;;;3.10;;
32876;SDS011;19226;51.600;8.034;2023-04-07T03:31:38;2.45;;;2.25;;
32876;SDS011;19226;51.600;8.034;2023-04-07T03:34:22;2.90;;;2.70;;
32876;SDS011;19226;51.600;8.034;2023-04-07T03:37:07;3.72;;;3.33;;
32876;SDS011;19226;51.600;8.034;2023-04-07T03:39:54;2.83;;;2.63;;
32876;SDS011;19226;51.600;8.034;2023-04-07T03:42:45;2.75;;;2.55;;
32876;SDS011;19226;51.600;8.034;2023-04-07T03:45:32;3.80;;;2.60;;
32876;SDS011;19226;51.600;8.034;2023-04-07T03:48:16;2.30;;;2.17;;
32876;SDS011;19226;51.600;8.034;2023-04-07T03:51:14;2.53;;;2.33;;
32876;SDS011;19226;51.600;8.034;2023-04-07T03:53:58;2.53;;;2.33;;
32876;SDS011;19226;51.600;8.034;2023-04-07T03:56:48;2.20;;;2.05;;
32876;SDS011;19226;51.600;8.034;2023-04-07T03:59:38;2.42;;;2.25;;
32876;SDS011;19226;51.600;8.034;2023-04-07T04:02:23;5.50;;;2.90;;
32876;SDS011;19226;51.600;8.034;2023-04-07T04:05:10;2.72;;;2.53;;
32876;SDS011;19226;51.600;8.034;2023-04-07T04:07:54;2.63;;;2.35;;
32876;SDS011;19226;51.600;8.034;2023-04-07T04:10:40;2.33;;;2.10;;
32876;SDS011;19226;51.600;8.034;2023-04-07T04:13:26;2.92;;;2.63;;
32876;SDS011;19226;51.600;8.034;2023-04-07T04:16:14;2.50;;;2.30;;
32876;SDS011;19226;51.600;8.034;2023-04-07T04:18:59;2.00;;;1.90;;
32876;SDS011;19226;51.600;8.034;2023-04-07T04:21:46;2.78;;;2.47;;
32876;SDS011;19226;51.600;8.034;2023-04-07T04:24:32;2.08;;;1.98;;
32876;SDS011;19226;51.600;8.034;2023-04-07T04:27:19;1.80;;;1.70;;
32876;SDS011;19226;51.600;8.034;2023-04-07T04:30:09;1.80;;;1.70;;
32876;SDS011;19226;51.600;8.034;2023-04-07T04:33:00;2.05;;;1.95;;
32876;SDS011;19226;51.600;8.034;2023-04-07T04:35:53;2.08;;;1.92;;
32876;SDS011;19226;51.600;8.034;2023-04-07T04:38:38;2.58;;;2.30;;
32876;SDS011;19226;51.600;8.034;2023-04-07T04:41:32;2.95;;;2.17;;
32876;SDS011;19226;51.600;8.034;2023-04-07T04:44:17;3.95;;;2.38;;
32876;SDS011;19226;51.600;8.034;2023-04-07T04:47:02;2.50;;;2.30;;
32876;SDS011;19226;51.600;8.034;2023-04-07T04:49:48;2.30;;;2.10;;
32876;SDS011;19226;51.600;8.034;2023-04-07T04:52:33;5.03;;;2.58;;
32876;SDS011;19226;51.600;8.034;2023-04-07T04:55:18;2.40;;;2.20;;
32876;SDS011;19226;51.600;8.034;2023-04-07T04:58:03;2.10;;;1.90;;
32876;SDS011;19226;51.600;8.034;2023-04-07T05:01:02;1.88;;;1.77;;
32876;SDS011;19226;51.600;8.034;2023-04-07T05:03:54;3.58;;;1.90;;
32876;SDS011;19226;51.600;8.034;2023-04-07T05:06:41;2.28;;;2.10;;
32876;SDS011;19226;51.600;8.034;2023-04-07T05:09:28;3.35;;;2.25;;
32876;SDS011;19226;51.600;8.034;2023-04-07T05:12:14;2.13;;;1.92;;
32876;SDS011;19226;51.600;8.034;2023-04-07T05:15:04;2.95;;;2.08;;
32876;SDS011;19226;51.600;8.034;2023-04-07T05:17:49;2.28;;;2.13;;
32876;SDS011;19226;51.600;8.034;2023-04-07T05:20:38;2.03;;;1.92;;
32876;SDS011;19226;51.600;8.034;2023-04-07T05:23:25;2.15;;;1.95;;
32876;SDS011;19226;51.600;8.034;2023-04-07T05:26:10;1.90;;;1.80;;
32876;SDS011;19226;51.600;8.034;2023-04-07T05:28:54;2.22;;;1.83;;
32876;SDS011;19226;51.600;8.034;2023-04-07T05:31:41;1.58;;;1.48;;
32876;SDS011;19226;51.600;8.034;2023-04-07T05:34:29;2.00;;;1.77;;
32876;SDS011;19226;51.600;8.034;2023-04-07T05:37:15;2.10;;;1.58;;
32876;SDS011;19226;51.600;8.034;2023-04-07T05:39:59;1.80;;;1.70;;
32876;SDS011;19226;51.600;8.034;2023-04-07T05:42:44;2.45;;;1.85;;
32876;SDS011;19226;51.600;8.034;2023-04-07T05:45:29;2.85;;;2.60;;
32876;SDS011;19226;51.600;8.034;2023-04-07T05:48:13;2.85;;;2.55;;
32876;SDS011;19226;51.600;8.034;2023-04-07T05:51:01;2.53;;;2.35;;
32876;SDS011;19226;51.600;8.034;2023-04-07T05:53:45;2.83;;;2.63;;
32876;SDS011;19226;51.600;8.034;2023-04-07T05:56:30;1.92;;;1.73;;
32876;SDS011;19226;51.600;8.034;2023-04-07T05:59:15;2.00;;;1.80;;
32876;SDS011;19226;51.600;8.034;2023-04-07T06:02:00;1.55;;;1.45;;
32876;SDS011;19226;51.600;8.034;2023-04-07T06:04:44;2.08;;;1.98;;
32876;SDS011;19226;51.600;8.034;2023-04-07T06:07:33;1.88;;;1.77;;
32876;SDS011;19226;51.600;8.034;2023-04-07T06:10:17;1.70;;;1.60;;
32876;SDS011;19226;51.600;8.034;2023-04-07T06:13:03;1.98;;;1.88;;
32876;SDS011;19226;51.600;8.034;2023-04-07T06:15:47;2.05;;;1.95;;
32876;SDS011;19226;51.600;8.034;2023-04-07T06:18:32;2.55;;;1.50;;
32876;SDS011;19226;51.600;8.034;2023-04-07T06:21:16;5.57;;;1.63;;
32876;SDS011;19226;51.600;8.034;2023-04-07T06:24:01;1.75;;;1.33;;
32876;SDS011;19226;51.600;8.034;2023-04-07T06:26:45;1.95;;;1.02;;
32876;SDS011;19226;51.600;8.034;2023-04-07T06:29:33;2.15;;;1.08;;
32876;SDS011;19226;51.600;8.034;2023-04-07T06:32:21;1.27;;;1.10;;
32876;SDS011;19226;51.600;8.034;2023-04-07T06:35:06;2.00;;;1.20;;
32876;SDS011;19226;51.600;8.034;2023-04-07T06:37:51;2.58;;;1.30;;
32876;SDS011;19226;51.600;8.034;2023-04-07T06:40:35;1.55;;;1.30;;
32876;SDS011;19226;51.600;8.034;2023-04-07T06:43:20;1.70;;;1.60;;
32876;SDS011;19226;51.600;8.034;2023-04-07T06:46:14;1.70;;;1.60;;
32876;SDS011;19226;51.600;8.034;2023-04-07T06:48:58;1.58;;;1.48;;
32876;SDS011;19226;51.600;8.034;2023-04-07T06:51:43;1.50;;;1.23;;
32876;SDS011;19226;51.600;8.034;2023-04-07T06:54:28;2.08;;;1.98;;
32876;SDS011;19226;51.600;8.034;2023-04-07T06:57:12;1.30;;;1.20;;
32876;SDS011;19226;51.600;8.034;2023-04-07T06:59:57;1.10;;;1.00;;
32876;SDS011;19226;51.600;8.034;2023-04-07T07:02:41;0.90;;;0.90;;
32876;SDS011;19226;51.600;8.034;2023-04-07T07:05:26;1.20;;;1.10;;
32876;SDS011;19226;51.600;8.034;2023-04-07T07:08:11;1.30;;;1.20;;
32876;SDS011;19226;51.600;8.034;2023-04-07T07:10:56;2.47;;;2.28;;
32876;SDS011;19226;51.600;8.034;2023-04-07T07:13:40;4.05;;;3.63;;
32876;SDS011;19226;51.600;8.034;2023-04-07T07:16:25;2.42;;;1.48;;
32876;SDS011;19226;51.600;8.034;2023-04-07T07:19:09;3.08;;;2.28;;
32876;SDS011;19226;51.600;8.034;2023-04-07T07:21:54;1.30;;;1.20;;
32876;SDS011;19226;51.600;8.034;2023-04-07T07:24:38;0.90;;;0.90;;
32876;SDS011;19226;51.600;8.034;2023-04-07T07:27:23;2.45;;;2.25;;
32876;SDS011;19226;51.600;8.034;2023-04-07T07:30:08;5.07;;;3.38;;
32876;SDS011;19226;51.600;8.034;2023-04-07T07:32:54;2.78;;;2.10;;
32876;SDS011;19226;51.600;8.034;2023-04-07T07:35:39;0.95;;;0.95;;
32876;SDS011;19226;51.600;8.034;2023-04-07T07:38:23;2.95;;;1.50;;
32876;SDS011;19226;51.600;8.034;2023-04-07T07:41:10;1.42;;;1.30;;
32876;SDS011;19226;51.600;8.034;2023-04-07T07:43:55;1.40;;;1.30;;
32876;SDS011;19226;51.600;8.034;2023-04-07T07:46:39;1.40;;;1.20;;
32876;SDS011;19226;51.600;8.034;2023-04-07T07:49:24;6.72;;;4.20;;
32876;SDS011;19226;51.600;8.034;2023-04-07T07:52:08;2.17;;;1.92;;
32876;SDS011;19226;51.600;8.034;2023-04-07T07:54:54;3.33;;;1.45;;
32876;SDS011;19226;51.600;8.034;2023-04-07T07:57:38;1.20;;;1.10;;
32876;SDS011;19226;51.600;8.034;2023-04-07T08:00:23;2.65;;;0.98;;
32876;SDS011;19226;51.600;8.034;2023-04-07T08:03:07;1.05;;;0.98;;
32876;SDS011;19226;51.600;8.034;2023-04-07T08:05:52;2.88;;;1.00;;
32876;SDS011;19226;51.600;8.034;2023-04-07T08:08:36;1.30;;;1.20;;
32876;SDS011;19226;51.600;8.034;2023-04-07T08:11:21;1.00;;;1.00;;
32876;SDS011;19226;51.600;8.034;2023-04-07T08:14:06;1.27;;;1.17;;
32876;SDS011;19226;51.600;8.034;2023-04-07T08:16:50;1.38;;;1.27;;
32876;SDS011;19226;51.600;8.034;2023-04-07T08:19:35;1.10;;;1.00;;
32876;SDS011;19226;51.600;8.034;2023-04-07T08:22:19;1.17;;;1.08;;
32876;SDS011;19226;51.600;8.034;2023-04-07T08:25:07;1.75;;;1.65;;
32876;SDS011;19226;51.600;8.034;2023-04-07T08:27:52;2.13;;;1.40;;
32876;SDS011;19226;51.600;8.034;2023-04-07T08:30:36;0.90;;;0.90;;
32876;SDS011;19226;51.600;8.034;2023-04-07T08:33:21;1.88;;;1.00;;
32876;SDS011;19226;51.600;8.034;2023-04-07T08:36:05;1.00;;;1.00;;
32876;SDS011;19226;51.600;8.034;2023-04-07T08:38:50;2.33;;;0.80;;
32876;SDS011;19226;51.600;8.034;2023-04-07T08:47:10;1.98;;;0.80;;
32876;SDS011;19226;51.600;8.034;2023-04-07T08:49:56;1.00;;;1.00;;
32876;SDS011;19226;51.600;8.034;2023-04-07T08:52:54;0.80;;;0.80;;
32876;SDS011;19226;51.600;8.034;2023-04-07T08:55:40;1.00;;;1.00;;
32876;SDS011;19226;51.600;8.034;2023-04-07T08:58:24;0.70;;;0.70;;
32876;SDS011;19226;51.600;8.034;2023-04-07T09:01:10;0.70;;;0.70;;
32876;SDS011;19226;51.600;8.034;2023-04-07T09:03:55;5.57;;;0.88;;
32876;SDS011;19226;51.600;8.034;2023-04-07T09:06:41;0.88;;;0.88;;
32876;SDS011;19226;51.600;8.034;2023-04-07T09:09:26;5.05;;;0.85;;
32876;SDS011;19226;51.600;8.034;2023-04-07T09:12:11;0.68;;;0.68;;
32876;SDS011;19226;51.600;8.034;2023-04-07T09:14:56;0.90;;;0.90;;
32876;SDS011;19226;51.600;8.034;2023-04-07T09:17:40;1.30;;;0.88;;
32876;SDS011;19226;51.600;8.034;2023-04-07T09:20:25;2.15;;;0.90;;
32876;SDS011;19226;51.600;8.034;2023-04-07T09:23:17;0.75;;;0.75;;
32876;SDS011;19226;51.600;8.034;2023-04-07T09:26:19;0.80;;;0.80;;
32876;SDS011;19226;51.600;8.034;2023-04-07T09:29:10;0.70;;;0.70;;
32876;SDS011;19226;51.600;8.034;2023-04-07T09:32:02;0.70;;;0.70;;
32876;SDS011;19226;51.600;8.034;2023-04-07T09:34:50;2.00;;;0.80;;
32876;SDS011;19226;51.600;8.034;2023-04-07T09:37:42;0.60;;;0.60;;
32876;SDS011;19226;51.600;8.034;2023-04-07T09:40:27;0.55;;;0.55;;
32876;SDS011;19226;51.600;8.034;2023-04-07T09:43:15;0.63;;;0.63;;
32876;SDS011;19226;51.600;8.034;2023-04-07T09:46:08;2.25;;;0.80;;
32876;SDS011;19226;51.600;8.034;2023-04-07T09:49:00;1.17;;;1.08;;
32876;SDS011;19226;51.600;8.034;2023-04-07T09:52:00;1.65;;;1.23;;
32876;SDS011;19226;51.600;8.034;2023-04-07T09:54:50;1.20;;;1.10;;
32876;SDS011;19226;51.600;8.034;2023-04-07T09:57:35;1.92;;;0.90;;
32876;SDS011;19226;51.600;8.034;2023-04-07T10:00:22;0.90;;;0.90;;
32876;SDS011;19226;51.600;8.034;2023-04-07T10:03:07;0.70;;;0.70;;
32876;SDS011;19226;51.600;8.034;2023-04-07T10:05:52;0.75;;;0.75;;
32876;SDS011;19226;51.600;8.034;2023-04-07T10:08:38;0.73;;;0.73;;
32876;SDS011;19226;51.600;8.034;2023-04-07T10:11:24;1.35;;;1.25;;
32876;SDS011;19226;51.600;8.034;2023-04-07T10:14:09;1.00;;;0.90;;
32876;SDS011;19226;51.600;8.034;2023-04-07T10:16:58;1.15;;;0.80;;
32876;SDS011;19226;51.600;8.034;2023-04-07T10:19:44;1.83;;;1.40;;
32876;SDS011;19226;51.600;8.034;2023-04-07T10:22:31;3.17;;;2.30;;
32876;SDS011;19226;51.600;8.034;2023-04-07T10:25:18;0.63;;;0.63;;
32876;SDS011;19226;51.600;8.034;2023-04-07T10:28:06;1.05;;;0.88;;
32876;SDS011;19226;51.600;8.034;2023-04-07T10:30:52;1.10;;;1.00;;
32876;SDS011;19226;51.600;8.034;2023-04-07T10:33:47;1.20;;;1.10;;
32876;SDS011;19226;51.600;8.034;2023-04-07T10:36:33;1.00;;;0.90;;
32876;SDS011;19226;51.600;8.034;2023-04-07T10:39:18;1.05;;;0.95;;
32876;SDS011;19226;51.600;8.034;2023-04-07T10:42:03;0.85;;;0.85;;
32876;SDS011;19226;51.600;8.034;2023-04-07T10:44:48;4.38;;;2.97;;
32876;SDS011;19226;51.600;8.034;2023-04-07T10:47:33;3.25;;;2.13;;
32876;SDS011;19226;51.600;8.034;2023-04-07T10:50:21;1.33;;;1.23;;
32876;SDS011;19226;51.600;8.034;2023-04-07T10:53:07;5.13;;;2.83;;
32876;SDS011;19226;51.600;8.034;2023-04-07T10:55:53;3.80;;;2.60;;
32876;SDS011;19226;51.600;8.034;2023-04-07T10:58:39;2.92;;;1.38;;
32876;SDS011;19226;51.600;8.034;2023-04-07T11:01:24;2.20;;;2.00;;
32876;SDS011;19226;51.600;8.034;2023-04-07T11:04:09;1.73;;;1.63;;
32876;SDS011;19226;51.600;8.034;2023-04-07T11:06:53;1.95;;;1.05;;
32876;SDS011;19226;51.600;8.034;2023-04-07T11:09:39;3.10;;;2.90;;
32876;SDS011;19226;51.600;8.034;2023-04-07T11:12:24;8.57;;;2.15;;
32876;SDS011;19226;51.600;8.034;2023-04-07T11:15:16;1.40;;;1.30;;
32876;SDS011;19226;51.600;8.034;2023-04-07T11:18:05;6.95;;;1.55;;
32876;SDS011;19226;51.600;8.034;2023-04-07T11:23:40;1.92;;;1.10;;
32876;SDS011;19226;51.600;8.034;2023-04-07T11:26:26;1.60;;;1.38;;
32876;SDS011;19226;51.600;8.034;2023-04-07T11:29:11;1.90;;;1.80;;
32876;SDS011;19226;51.600;8.034;2023-04-07T11:32:00;2.00;;;1.90;;
32876;SDS011;19226;51.600;8.034;2023-04-07T11:34:45;2.70;;;2.33;;
32876;SDS011;19226;51.600;8.034;2023-04-07T11:37:30;4.20;;;3.60;;
32876;SDS011;19226;51.600;8.034;2023-04-07T11:40:29;2.90;;;2.70;;
32876;SDS011;19226;51.600;8.034;2023-04-07T11:43:23;2.53;;;2.00;;
32876;SDS011;19226;51.600;8.034;2023-04-07T11:46:10;2.03;;;1.83;;
32876;SDS011;19226;51.600;8.034;2023-04-07T11:49:10;3.50;;;1.77;;
32876;SDS011;19226;51.600;8.034;2023-04-07T11:52:02;2.85;;;2.58;;
32876;SDS011;19226;51.600;8.034;2023-04-07T11:54:49;3.85;;;2.15;;
32876;SDS011;19226;51.600;8.034;2023-04-07T11:57:34;2.15;;;1.70;;
32876;SDS011;19226;51.600;8.034;2023-04-07T12:00:18;2.30;;;1.90;;
32876;SDS011;19226;51.600;8.034;2023-04-07T12:03:10;4.30;;;3.90;;
32876;SDS011;19226;51.600;8.034;2023-04-07T12:05:59;4.88;;;4.47;;
32876;SDS011;19226;51.600;8.034;2023-04-07T12:08:44;6.80;;;5.57;;
32876;SDS011;19226;51.600;8.034;2023-04-07T12:11:29;3.80;;;3.50;;
32876;SDS011;19226;51.600;8.034;2023-04-07T12:14:17;4.28;;;3.95;;
32876;SDS011;19226;51.600;8.034;2023-04-07T12:17:02;3.10;;;2.80;;
32876;SDS011;19226;51.600;8.034;2023-04-07T12:19:47;2.97;;;2.78;;
32876;SDS011;19226;51.600;8.034;2023-04-07T12:22:31;4.50;;;2.50;;
32876;SDS011;19226;51.600;8.034;2023-04-07T12:25:16;2.60;;;2.40;;
32876;SDS011;19226;51.600;8.034;2023-04-07T12:28:00;2.28;;;2.15;;
32876;SDS011;19226;51.600;8.034;2023-04-07T12:30:45;2.67;;;2.17;;
32876;SDS011;19226;51.600;8.034;2023-04-07T12:33:30;2.47;;;2.28;;
32876;SDS011;19226;51.600;8.034;2023-04-07T12:36:15;2.75;;;2.55;;
32876;SDS011;19226;51.600;8.034;2023-04-07T12:39:02;3.83;;;3.53;;
32876;SDS011;19226;51.600;8.034;2023-04-07T12:41:47;2.55;;;2.35;;
32876;SDS011;19226;51.600;8.034;2023-04-07T12:44:35;5.13;;;3.15;;
32876;SDS011;19226;51.600;8.034;2023-04-07T12:47:22;2.72;;;2.53;;
32876;SDS011;19226;51.600;8.034;2023-04-07T12:50:07;2.50;;;2.30;;
32876;SDS011;19226;51.600;8.034;2023-04-07T12:52:52;2.20;;;2.00;;
32876;SDS011;19226;51.600;8.034;2023-04-07T12:55:37;1.92;;;1.80;;
32876;SDS011;19226;51.600;8.034;2023-04-07T12:58:21;1.45;;;1.35;;
32876;SDS011;19226;51.600;8.034;2023-04-07T13:01:07;1.73;;;1.63;;
32876;SDS011;19226;51.600;8.034;2023-04-07T13:03:52;2.92;;;2.20;;
32876;SDS011;19226;51.600;8.034;2023-04-07T13:06:37;2.42;;;2.20;;
32876;SDS011;19226;51.600;8.034;2023-04-07T13:09:21;3.13;;;2.30;;
32876;SDS011;19226;51.600;8.034;2023-04-07T13:12:11;2.90;;;2.35;;
32876;SDS011;19226;51.600;8.034;2023-04-07T13:14:56;1.80;;;1.70;;
32876;SDS011;19226;51.600;8.034;2023-04-07T13:17:40;2.70;;;2.08;;
32876;SDS011;19226;51.600;8.034;2023-04-07T13:20:25;4.50;;;1.33;;
32876;SDS011;19226;51.600;8.034;2023-04-07T13:23:10;6.22;;;2.40;;
32876;SDS011;19226;51.600;8.034;2023-04-07T13:25:55;4.32;;;2.55;;
32876;SDS011;19226;51.600;8.034;2023-04-07T13:28:39;1.98;;;1.25;;
32876;SDS011;19226;51.600;8.034;2023-04-07T13:31:24;1.17;;;1.17;;
32876;SDS011;19226;51.600;8.034;2023-04-07T13:34:09;1.23;;;1.13;;
32876;SDS011;19226;51.600;8.034;2023-04-07T13:36:53;1.38;;;1.10;;
32876;SDS011;19226;51.600;8.034;2023-04-07T13:39:38;3.10;;;1.88;;
32876;SDS011;19226;51.600;8.034;2023-04-07T13:42:22;2.22;;;2.13;;
32876;SDS011;19226;51.600;8.034;2023-04-07T13:45:07;5.45;;;3.45;;
32876;SDS011;19226;51.600;8.034;2023-04-07T13:47:52;1.80;;;1.70;;
32876;SDS011;19226;51.600;8.034;2023-04-07T13:50:37;3.30;;;3.00;;
32876;SDS011;19226;51.600;8.034;2023-04-07T13:53:22;11.90;;;5.82;;
32876;SDS011;19226;51.600;8.034;2023-04-07T13:56:06;5.07;;;4.22;;
32876;SDS011;19226;51.600;8.034;2023-04-07T13:58:51;2.38;;;2.17;;
32876;SDS011;19226;51.600;8.034;2023-04-07T14:01:35;4.68;;;3.58;;
32876;SDS011;19226;51.600;8.034;2023-04-07T14:04:21;3.05;;;2.60;;
32876;SDS011;19226;51.600;8.034;2023-04-07T14:07:07;1.90;;;1.70;;
32876;SDS011;19226;51.600;8.034;2023-04-07T14:09:51;1.58;;;1.48;;
32876;SDS011;19226;51.600;8.034;2023-04-07T14:12:37;1.77;;;1.50;;
32876;SDS011;19226;51.600;8.034;2023-04-07T14:15:21;1.50;;;1.40;;
32876;SDS011;19226;51.600;8.034;2023-04-07T14:18:06;1.92;;;1.30;;
32876;SDS011;19226;51.600;8.034;2023-04-07T14:20:51;1.83;;;1.23;;
32876;SDS011;19226;51.600;8.034;2023-04-07T14:23:35;1.45;;;1.35;;
32876;SDS011;19226;51.600;8.034;2023-04-07T14:26:20;1.50;;;1.40;;
32876;SDS011;19226;51.600;8.034;2023-04-07T14:29:08;1.02;;;1.00;;
32876;SDS011;19226;51.600;8.034;2023-04-07T14:31:52;1.50;;;1.38;;
32876;SDS011;19226;51.600;8.034;2023-04-07T14:34:36;3.25;;;1.33;;
32876;SDS011;19226;51.600;8.034;2023-04-07T14:37:21;2.17;;;1.98;;
32876;SDS011;19226;51.600;8.034;2023-04-07T14:40:09;1.40;;;1.23;;
32876;SDS011;19226;51.600;8.034;2023-04-07T14:42:53;1.50;;;1.33;;
32876;SDS011;19226;51.600;8.034;2023-04-07T14:45:38;3.17;;;1.55;;
32876;SDS011;19226;51.600;8.034;2023-04-07T14:48:23;2.10;;;2.00;;
32876;SDS011;19226;51.600;8.034;2023-04-07T14:51:11;1.50;;;1.40;;
32876;SDS011;19226;51.600;8.034;2023-04-07T14:53:56;1.77;;;1.67;;
32876;SDS011;19226;51.600;8.034;2023-04-07T14:56:41;2.25;;;1.90;;
32876;SDS011;19226;51.600;8.034;2023-04-07T14:59:25;1.75;;;1.65;;
32876;SDS011;19226;51.600;8.034;2023-04-07T15:02:10;2.20;;;2.00;;
32876;SDS011;19226;51.600;8.034;2023-04-07T15:04:54;3.38;;;2.47;;
32876;SDS011;19226;51.600;8.034;2023-04-07T15:07:39;2.13;;;1.85;;
32876;SDS011;19226;51.600;8.034;2023-04-07T15:10:26;2.90;;;2.00;;
32876;SDS011;19226;51.600;8.034;2023-04-07T15:13:11;2.17;;;1.98;;
32876;SDS011;19226;51.600;8.034;2023-04-07T15:15:55;2.00;;;1.80;;
32876;SDS011;19226;51.600;8.034;2023-04-07T15:18:48;2.38;;;1.98;;
32876;SDS011;19226;51.600;8.034;2023-04-07T15:21:33;3.88;;;3.00;;
32876;SDS011;19226;51.600;8.034;2023-04-07T15:24:18;3.05;;;2.70;;
32876;SDS011;19226;51.600;8.034;2023-04-07T15:27:04;2.95;;;2.65;;
32876;SDS011;19226;51.600;8.034;2023-04-07T15:29:49;2.10;;;1.88;;
32876;SDS011;19226;51.600;8.034;2023-04-07T15:32:34;2.42;;;1.95;;
32876;SDS011;19226;51.600;8.034;2023-04-07T15:35:18;7.88;;;5.03;;
32876;SDS011;19226;51.600;8.034;2023-04-07T15:38:03;6.15;;;4.60;;
32876;SDS011;19226;51.600;8.034;2023-04-07T15:40:47;7.50;;;5.38;;
32876;SDS011;19226;51.600;8.034;2023-04-07T15:43:32;2.45;;;2.20;;
32876;SDS011;19226;51.600;8.034;2023-04-07T15:46:17;2.35;;;2.15;;
32876;SDS011;19226;51.600;8.034;2023-04-07T15:49:06;2.90;;;2.33;;
32876;SDS011;19226;51.600;8.034;2023-04-07T15:51:50;2.03;;;1.80;;
32876;SDS011;19226;51.600;8.034;2023-04-07T15:54:35;3.40;;;2.15;;
32876;SDS011;19226;51.600;8.034;2023-04-07T15:57:19;2.60;;;2.40;;
32876;SDS011;19226;51.600;8.034;2023-04-07T16:00:05;2.58;;;2.38;;
32876;SDS011;19226;51.600;8.034;2023-04-07T16:02:50;2.00;;;1.90;;
32876;SDS011;19226;51.600;8.034;2023-04-07T16:05:34;3.75;;;2.40;;
32876;SDS011;19226;51.600;8.034;2023-04-07T16:08:20;3.03;;;2.70;;
32876;SDS011;19226;51.600;8.034;2023-04-07T16:11:05;3.95;;;3.05;;
32876;SDS011;19226;51.600;8.034;2023-04-07T16:13:49;6.47;;;4.03;;
32876;SDS011;19226;51.600;8.034;2023-04-07T16:16:34;3.00;;;2.30;;
32876;SDS011;19226;51.600;8.034;2023-04-07T16:19:19;2.28;;;2.05;;
32876;SDS011;19226;51.600;8.034;2023-04-07T16:22:04;4.55;;;3.50;;
32876;SDS011;19226;51.600;8.034;2023-04-07T16:24:48;3.03;;;2.72;;
32876;SDS011;19226;51.600;8.034;2023-04-07T16:27:33;3.33;;;2.30;;
32876;SDS011;19226;51.600;8.034;2023-04-07T16:30:19;3.63;;;2.60;;
32876;SDS011;19226;51.600;8.034;2023-04-07T16:33:04;3.42;;;1.88;;
32876;SDS011;19226;51.600;8.034;2023-04-07T16:35:48;1.83;;;1.73;;
32876;SDS011;19226;51.600;8.034;2023-04-07T16:38:33;1.70;;;1.60;;
32876;SDS011;19226;51.600;8.034;2023-04-07T16:41:18;1.75;;;1.63;;
32876;SDS011;19226;51.600;8.034;2023-04-07T16:44:03;1.70;;;1.58;;
32876;SDS011;19226;51.600;8.034;2023-04-07T16:46:47;2.05;;;1.60;;
32876;SDS011;19226;51.600;8.034;2023-04-07T16:49:32;1.75;;;1.65;;
32876;SDS011;19226;51.600;8.034;2023-04-07T16:52:17;2.13;;;1.90;;
32876;SDS011;19226;51.600;8.034;2023-04-07T16:55:02;4.75;;;2.45;;
32876;SDS011;19226;51.600;8.034;2023-04-07T16:57:47;2.95;;;2.28;;
32876;SDS011;19226;51.600;8.034;2023-04-07T17:00:32;1.95;;;1.80;;